Cacuaco, Angola
Current Conditions -  °F | °C
As of 3:00 AM on Saturday 29 Nov 2014 (Local Time) from FNLU Reporting Station
Broken Clouds Broken Clouds  
Wind Chill: 77°   Ceiling: 2300
Heat Index: 78°   Visibility: 6mi
Dew Point: 72°   Wind: 5mph
Humidity: 83%   Direction: 100°E
Pressure: 29.91"   Gusts: NA
Location:  8.78°S, 13.37°E
Report Text: FNLU 290200Z 10004KT 9999 FEW019 BKN023 25/22 Q1013 NOSIG
Loading
Personal Weather Stations






























Interactive Weather Map New forecast layout! Learn more

10-Day Weather Forecast

Advertisements
Track Severe Weather on mobile